This is the latest recevied weather packets stored in our database for station/object KM8ICE-10. If no packets are shown the sender has not sent any weather packets the latest 10 day(s).
| Time | Temp. | Humidity | Pressure | Rain* | Wind** | Luminosity | Snow |
|---|---|---|---|---|---|---|---|
| 1777864208 | 13.89° C | 51% | 1015.2 hPa | 0 mm | - | - | - |
| 1777863608 | 14.44° C | 51% | 1015.2 hPa | 0 mm | - | - | - |
| 1777862408 | 14.44° C | 49% | 1015.3 hPa | 0 mm | - | - | - |
| 1777861808 | 14.44° C | 49% | 1015.2 hPa | 0 mm | - | - | - |
| 1777861208 | 14.44° C | 48% | 1015.3 hPa | 0 mm | - | - | - |
| 1777860608 | 14.44° C | 48% | 1015.5 hPa | 0 mm | - | - | - |
| 1777860008 | 14.44° C | 48% | 1015.5 hPa | 0 mm | - | - | - |
| 1777859408 | 15° C | 47% | 1015.3 hPa | 0 mm | - | - | - |
| 1777858808 | 14.44° C | 47% | 1015.5 hPa | 0 mm | - | - | - |
| 1777858208 | 15° C | 47% | 1015.5 hPa | 0 mm | - | - | - |
| 1777857607 | 15° C | 47% | 1015.4 hPa | 0 mm | - | - | - |
| 1777854608 | 16.67° C | 41% | 1014.8 hPa | 0 mm | - | - | - |
| 1777854007 | 17.22° C | 40% | 1014.6 hPa | 0 mm | - | - | - |
| 1777853408 | 17.22° C | 39% | 1014.7 hPa | 0 mm | - | - | - |
| 1777852807 | 17.22° C | 39% | 1014.6 hPa | 0 mm | - | - | - |
| 1777852208 | 17.78° C | 38% | 1014.7 hPa | 0 mm | - | - | - |
| 1777851607 | 17.78° C | 38% | 1014.7 hPa | 0 mm | - | - | - |
| 1777850407 | 18.33° C | 36% | 1014.7 hPa | 0 mm | - | - | - |
| 1777849807 | 18.33° C | 36% | 1014.8 hPa | 0 mm | - | - | - |
| 1777849207 | 18.33° C | 35% | 1014.9 hPa | 0 mm | - | - | - |
| 1777848608 | 18.33° C | 36% | 1015.2 hPa | 0 mm | - | - | - |
| 1777848007 | 17.78° C | 35% | 1015.4 hPa | 0 mm | - | - | - |
| 1777847407 | 17.78° C | 35% | 1015.7 hPa | 0 mm | - | - | - |
| 1777846808 | 18.33° C | 33% | 1015.8 hPa | 0 mm | - | - | - |
| 1777846207 | 18.33° C | 33% | 1015.9 hPa | 0 mm | - | - | - |
* Rain latest hour (hover to see other rain measurements)
** Current wind speed in m/s (hover to see current wind gust speed)